Bejaia, Algeria
Current Conditions -  °F | °C
As of 9:00 AM on Friday 24 Oct 2014 (Local Time) from DAAE Reporting Station
Scattered Clouds Scattered Clouds  
Wind Chill: 63°   Ceiling: Unl
Heat Index: 63°   Visibility: 6mi
Dew Point: 52°   Wind: 14mph
Humidity: 68%   Direction: 260°W
Pressure: 30.03"   Gusts: NA
Location:  36.54°N, 4.97°E
Report Text: DAAE 240800Z 26012KT 9999 FEW020 SCT090 17/11 Q1017
Loading
Personal Weather Stations






























Interactive Weather Map
Tropical Storm Tracking
New forecast layout! Learn more

10-Day Weather Forecast

Advertisements
Track Severe Weather on mobile